SBPK/PET METAR and TAF weather

Enter ICAO airport designator
Station Type Date Time Source
SBPK METAR 2020/01/22 18:00 UTC NOAA

SBPK 221800Z 10016G26KT 9999 BKN040 30/20 Q1013


Station Type Date Time Source
SBPK Decoded METAR 2020/01/22 18:00 UTC NOAA

Pelotas, Brazil (SBPK) 31-52S 052-21W 13M
Jan 22, 2020 - 01:00 PM EST / 2020.01.22 1800 UTC
Wind: from the E (100 degrees) at 18 MPH (16 KT) gusting to 30 MPH (26 KT):0
Visibility: greater than 7 mile(s):0
Sky conditions: mostly cloudy
Temperature: 86 F (30 C)
Dew Point: 68 F (20 C)
Relative Humidity: 55%
Pressure (altimeter): 29.91 in. Hg (1013 hPa)
ob: SBPK 221800Z 10016G26KT 9999 BKN040 30/20 Q1013
cycle: 18

Station Type Date Time Source
SBPK TAF 2020/01/22 18:30 UTC NOAA

TAF SBPK 221530Z 2218/2318 11012KT 9999 SCT030 TN21/2308Z TX29/2318Z
TEMPO 2306/2312 11006KT 5000 BR SCT006
RMK PDW

Example: see airport list